sensor_id;sensor_type;location;lat;lon;timestamp;P1;durP1;ratioP1;P2;durP2;ratioP2
53022;SDS011;38913;44.338;11.206;2023-03-01T00:00:10;37.38;;;19.95;;
53022;SDS011;38913;44.338;11.206;2023-03-01T00:02:36;38.95;;;21.17;;
53022;SDS011;38913;44.338;11.206;2023-03-01T00:05:01;51.95;;;23.70;;
53022;SDS011;38913;44.338;11.206;2023-03-01T00:07:27;37.30;;;20.02;;
53022;SDS011;38913;44.338;11.206;2023-03-01T00:09:53;42.65;;;20.83;;
53022;SDS011;38913;44.338;11.206;2023-03-01T00:12:19;42.80;;;20.58;;
53022;SDS011;38913;44.338;11.206;2023-03-01T00:14:44;38.00;;;20.20;;
53022;SDS011;38913;44.338;11.206;2023-03-01T00:17:09;45.50;;;22.00;;
53022;SDS011;38913;44.338;11.206;2023-03-01T00:19:35;41.53;;;20.90;;
53022;SDS011;38913;44.338;11.206;2023-03-01T00:22:01;41.05;;;21.95;;
53022;SDS011;38913;44.338;11.206;2023-03-01T00:24:26;43.08;;;21.30;;
53022;SDS011;38913;44.338;11.206;2023-03-01T00:26:55;44.20;;;22.27;;
53022;SDS011;38913;44.338;11.206;2023-03-01T00:29:21;41.78;;;21.10;;
53022;SDS011;38913;44.338;11.206;2023-03-01T00:31:46;42.97;;;21.08;;
53022;SDS011;38913;44.338;11.206;2023-03-01T00:34:11;46.33;;;23.30;;
53022;SDS011;38913;44.338;11.206;2023-03-01T00:36:37;42.20;;;20.77;;
53022;SDS011;38913;44.338;11.206;2023-03-01T00:39:03;42.85;;;21.83;;
53022;SDS011;38913;44.338;11.206;2023-03-01T00:41:29;42.75;;;22.45;;
53022;SDS011;38913;44.338;11.206;2023-03-01T00:43:54;42.45;;;22.17;;
53022;SDS011;38913;44.338;11.206;2023-03-01T00:46:21;42.00;;;20.83;;
53022;SDS011;38913;44.338;11.206;2023-03-01T00:48:47;46.22;;;22.85;;
53022;SDS011;38913;44.338;11.206;2023-03-01T00:51:19;40.08;;;21.05;;
53022;SDS011;38913;44.338;11.206;2023-03-01T00:53:44;39.63;;;21.00;;
53022;SDS011;38913;44.338;11.206;2023-03-01T00:56:10;37.50;;;20.20;;
53022;SDS011;38913;44.338;11.206;2023-03-01T00:58:36;39.78;;;19.95;;
53022;SDS011;38913;44.338;11.206;2023-03-01T01:01:06;42.95;;;20.52;;
53022;SDS011;38913;44.338;11.206;2023-03-01T01:03:32;37.05;;;19.08;;
53022;SDS011;38913;44.338;11.206;2023-03-01T01:05:57;39.53;;;18.57;;
53022;SDS011;38913;44.338;11.206;2023-03-01T01:08:22;37.85;;;19.73;;
53022;SDS011;38913;44.338;11.206;2023-03-01T01:10:48;37.65;;;19.15;;
53022;SDS011;38913;44.338;11.206;2023-03-01T01:13:13;37.03;;;19.50;;
53022;SDS011;38913;44.338;11.206;2023-03-01T01:15:39;41.53;;;18.98;;
53022;SDS011;38913;44.338;11.206;2023-03-01T01:18:04;40.50;;;20.08;;
53022;SDS011;38913;44.338;11.206;2023-03-01T01:20:30;36.85;;;19.70;;
53022;SDS011;38913;44.338;11.206;2023-03-01T01:22:55;39.63;;;20.10;;
53022;SDS011;38913;44.338;11.206;2023-03-01T01:25:20;38.60;;;20.93;;
53022;SDS011;38913;44.338;11.206;2023-03-01T01:27:45;40.83;;;19.25;;
53022;SDS011;38913;44.338;11.206;2023-03-01T01:30:11;39.33;;;19.67;;
53022;SDS011;38913;44.338;11.206;2023-03-01T01:32:36;38.88;;;19.95;;
53022;SDS011;38913;44.338;11.206;2023-03-01T01:35:02;36.47;;;19.48;;
53022;SDS011;38913;44.338;11.206;2023-03-01T01:37:27;38.75;;;19.33;;
53022;SDS011;38913;44.338;11.206;2023-03-01T01:39:59;37.97;;;18.63;;
53022;SDS011;38913;44.338;11.206;2023-03-01T01:42:24;38.33;;;19.42;;
53022;SDS011;38913;44.338;11.206;2023-03-01T01:47:34;34.35;;;17.52;;
53022;SDS011;38913;44.338;11.206;2023-03-01T01:49:59;37.78;;;18.70;;
53022;SDS011;38913;44.338;11.206;2023-03-01T01:52:26;38.87;;;19.17;;
53022;SDS011;38913;44.338;11.206;2023-03-01T01:58:13;40.58;;;20.15;;
53022;SDS011;38913;44.338;11.206;2023-03-01T02:00:20;42.10;;;20.80;;
53022;SDS011;38913;44.338;11.206;2023-03-01T02:02:46;42.70;;;20.63;;
53022;SDS011;38913;44.338;11.206;2023-03-01T02:05:17;43.88;;;20.40;;
53022;SDS011;38913;44.338;11.206;2023-03-01T02:07:45;43.28;;;19.52;;
53022;SDS011;38913;44.338;11.206;2023-03-01T02:10:11;39.63;;;19.75;;
53022;SDS011;38913;44.338;11.206;2023-03-01T02:12:36;43.15;;;20.67;;
53022;SDS011;38913;44.338;11.206;2023-03-01T02:15:02;40.13;;;20.45;;
53022;SDS011;38913;44.338;11.206;2023-03-01T02:17:28;43.80;;;20.27;;
53022;SDS011;38913;44.338;11.206;2023-03-01T02:22:32;37.60;;;18.85;;
53022;SDS011;38913;44.338;11.206;2023-03-01T02:27:28;40.65;;;21.13;;
53022;SDS011;38913;44.338;11.206;2023-03-01T02:29:57;40.42;;;21.02;;
53022;SDS011;38913;44.338;11.206;2023-03-01T02:32:22;41.65;;;21.38;;
53022;SDS011;38913;44.338;11.206;2023-03-01T02:34:53;41.25;;;20.42;;
53022;SDS011;38913;44.338;11.206;2023-03-01T02:37:18;40.03;;;18.90;;
53022;SDS011;38913;44.338;11.206;2023-03-01T02:39:50;38.50;;;19.85;;
53022;SDS011;38913;44.338;11.206;2023-03-01T02:42:20;36.85;;;19.77;;
53022;SDS011;38913;44.338;11.206;2023-03-01T02:44:46;43.08;;;19.65;;
53022;SDS011;38913;44.338;11.206;2023-03-01T02:47:13;40.90;;;19.83;;
53022;SDS011;38913;44.338;11.206;2023-03-01T02:49:38;42.77;;;20.60;;
53022;SDS011;38913;44.338;11.206;2023-03-01T02:57:22;38.55;;;20.55;;
53022;SDS011;38913;44.338;11.206;2023-03-01T02:59:48;35.97;;;19.38;;
53022;SDS011;38913;44.338;11.206;2023-03-01T03:02:18;38.67;;;19.55;;
53022;SDS011;38913;44.338;11.206;2023-03-01T03:05:01;39.17;;;19.73;;
53022;SDS011;38913;44.338;11.206;2023-03-01T03:07:26;38.38;;;19.73;;
53022;SDS011;38913;44.338;11.206;2023-03-01T03:09:51;41.60;;;21.30;;
53022;SDS011;38913;44.338;11.206;2023-03-01T03:12:17;47.83;;;23.00;;
53022;SDS011;38913;44.338;11.206;2023-03-01T03:14:42;51.67;;;25.95;;
53022;SDS011;38913;44.338;11.206;2023-03-01T03:17:07;48.40;;;24.73;;
53022;SDS011;38913;44.338;11.206;2023-03-01T03:19:32;47.37;;;24.47;;
53022;SDS011;38913;44.338;11.206;2023-03-01T03:21:58;49.08;;;23.70;;
53022;SDS011;38913;44.338;11.206;2023-03-01T03:24:24;40.08;;;21.63;;
53022;SDS011;38913;44.338;11.206;2023-03-01T03:26:49;45.05;;;21.35;;
53022;SDS011;38913;44.338;11.206;2023-03-01T03:29:14;36.78;;;19.27;;
53022;SDS011;38913;44.338;11.206;2023-03-01T03:31:40;34.67;;;17.75;;
53022;SDS011;38913;44.338;11.206;2023-03-01T03:34:05;33.50;;;18.03;;
53022;SDS011;38913;44.338;11.206;2023-03-01T03:36:30;35.40;;;18.50;;
53022;SDS011;38913;44.338;11.206;2023-03-01T03:38:55;33.67;;;17.55;;
53022;SDS011;38913;44.338;11.206;2023-03-01T03:41:21;34.20;;;17.15;;
53022;SDS011;38913;44.338;11.206;2023-03-01T03:43:46;34.75;;;17.88;;
53022;SDS011;38913;44.338;11.206;2023-03-01T03:46:11;33.10;;;16.83;;
53022;SDS011;38913;44.338;11.206;2023-03-01T03:48:41;31.58;;;17.13;;
53022;SDS011;38913;44.338;11.206;2023-03-01T03:51:09;34.55;;;17.20;;
53022;SDS011;38913;44.338;11.206;2023-03-01T03:53:35;33.13;;;16.60;;
53022;SDS011;38913;44.338;11.206;2023-03-01T03:56:00;31.90;;;16.13;;
53022;SDS011;38913;44.338;11.206;2023-03-01T03:58:26;35.10;;;17.13;;
53022;SDS011;38913;44.338;11.206;2023-03-01T04:00:52;33.83;;;16.35;;
53022;SDS011;38913;44.338;11.206;2023-03-01T04:03:18;33.47;;;17.05;;
53022;SDS011;38913;44.338;11.206;2023-03-01T04:05:45;31.20;;;16.30;;
53022;SDS011;38913;44.338;11.206;2023-03-01T04:08:10;28.35;;;15.77;;
53022;SDS011;38913;44.338;11.206;2023-03-01T04:10:45;31.48;;;16.00;;
53022;SDS011;38913;44.338;11.206;2023-03-01T04:13:11;36.35;;;16.73;;
53022;SDS011;38913;44.338;11.206;2023-03-01T04:15:37;29.63;;;15.75;;
53022;SDS011;38913;44.338;11.206;2023-03-01T04:18:02;29.00;;;15.23;;
53022;SDS011;38913;44.338;11.206;2023-03-01T04:20:29;32.15;;;16.45;;
53022;SDS011;38913;44.338;11.206;2023-03-01T04:25:22;30.40;;;15.68;;
53022;SDS011;38913;44.338;11.206;2023-03-01T04:27:48;27.80;;;15.30;;
53022;SDS011;38913;44.338;11.206;2023-03-01T04:30:13;29.35;;;15.27;;
53022;SDS011;38913;44.338;11.206;2023-03-01T04:32:38;30.58;;;15.18;;
53022;SDS011;38913;44.338;11.206;2023-03-01T04:35:04;29.43;;;16.03;;
53022;SDS011;38913;44.338;11.206;2023-03-01T04:37:29;29.40;;;15.77;;
53022;SDS011;38913;44.338;11.206;2023-03-01T04:39:54;32.08;;;16.20;;
53022;SDS011;38913;44.338;11.206;2023-03-01T04:42:19;30.97;;;16.03;;
53022;SDS011;38913;44.338;11.206;2023-03-01T04:44:45;29.67;;;15.03;;
53022;SDS011;38913;44.338;11.206;2023-03-01T04:47:11;29.58;;;15.50;;
53022;SDS011;38913;44.338;11.206;2023-03-01T04:49:36;33.80;;;17.95;;
53022;SDS011;38913;44.338;11.206;2023-03-01T04:52:02;30.27;;;16.42;;
53022;SDS011;38913;44.338;11.206;2023-03-01T04:54:32;34.83;;;16.30;;
53022;SDS011;38913;44.338;11.206;2023-03-01T04:56:58;30.35;;;16.50;;
53022;SDS011;38913;44.338;11.206;2023-03-01T04:59:23;31.75;;;16.63;;
53022;SDS011;38913;44.338;11.206;2023-03-01T05:01:49;32.35;;;16.67;;
53022;SDS011;38913;44.338;11.206;2023-03-01T05:04:14;33.88;;;18.40;;
53022;SDS011;38913;44.338;11.206;2023-03-01T05:06:40;39.63;;;19.10;;
53022;SDS011;38913;44.338;11.206;2023-03-01T05:09:05;35.08;;;18.08;;
53022;SDS011;38913;44.338;11.206;2023-03-01T05:11:30;31.50;;;18.35;;
53022;SDS011;38913;44.338;11.206;2023-03-01T05:14:00;35.22;;;17.50;;
53022;SDS011;38913;44.338;11.206;2023-03-01T05:16:26;33.90;;;18.55;;
53022;SDS011;38913;44.338;11.206;2023-03-01T05:18:51;32.35;;;18.27;;
53022;SDS011;38913;44.338;11.206;2023-03-01T05:21:16;35.77;;;16.97;;
53022;SDS011;38913;44.338;11.206;2023-03-01T05:23:42;33.92;;;16.75;;
53022;SDS011;38913;44.338;11.206;2023-03-01T05:26:07;33.15;;;17.92;;
53022;SDS011;38913;44.338;11.206;2023-03-01T05:28:33;28.17;;;15.63;;
53022;SDS011;38913;44.338;11.206;2023-03-01T05:30:58;29.23;;;15.82;;
53022;SDS011;38913;44.338;11.206;2023-03-01T05:33:24;32.55;;;17.13;;
53022;SDS011;38913;44.338;11.206;2023-03-01T05:35:50;30.80;;;16.23;;
53022;SDS011;38913;44.338;11.206;2023-03-01T05:38:16;34.20;;;17.08;;
53022;SDS011;38913;44.338;11.206;2023-03-01T05:40:42;31.98;;;17.35;;
53022;SDS011;38913;44.338;11.206;2023-03-01T05:43:07;32.00;;;16.75;;
53022;SDS011;38913;44.338;11.206;2023-03-01T05:45:33;33.25;;;18.33;;
53022;SDS011;38913;44.338;11.206;2023-03-01T05:48:00;36.42;;;17.67;;
53022;SDS011;38913;44.338;11.206;2023-03-01T05:50:26;34.55;;;17.63;;
53022;SDS011;38913;44.338;11.206;2023-03-01T05:52:56;30.27;;;16.27;;
53022;SDS011;38913;44.338;11.206;2023-03-01T05:55:21;34.63;;;17.98;;
53022;SDS011;38913;44.338;11.206;2023-03-01T05:57:47;36.27;;;16.93;;
53022;SDS011;38913;44.338;11.206;2023-03-01T06:00:13;34.42;;;17.55;;
53022;SDS011;38913;44.338;11.206;2023-03-01T06:02:38;30.90;;;16.60;;
53022;SDS011;38913;44.338;11.206;2023-03-01T06:05:04;33.17;;;17.75;;
53022;SDS011;38913;44.338;11.206;2023-03-01T06:07:30;30.27;;;15.52;;
53022;SDS011;38913;44.338;11.206;2023-03-01T06:09:56;31.77;;;17.20;;
53022;SDS011;38913;44.338;11.206;2023-03-01T06:12:21;31.52;;;17.02;;
53022;SDS011;38913;44.338;11.206;2023-03-01T06:14:46;29.98;;;16.92;;
53022;SDS011;38913;44.338;11.206;2023-03-01T06:17:14;30.13;;;15.93;;
53022;SDS011;38913;44.338;11.206;2023-03-01T06:19:40;29.02;;;15.50;;
53022;SDS011;38913;44.338;11.206;2023-03-01T06:22:05;27.42;;;15.68;;
53022;SDS011;38913;44.338;11.206;2023-03-01T06:24:30;28.77;;;15.17;;
53022;SDS011;38913;44.338;11.206;2023-03-01T06:26:55;29.15;;;15.35;;
53022;SDS011;38913;44.338;11.206;2023-03-01T06:29:21;28.63;;;15.30;;
53022;SDS011;38913;44.338;11.206;2023-03-01T06:31:47;27.92;;;14.85;;
53022;SDS011;38913;44.338;11.206;2023-03-01T06:34:12;24.40;;;14.05;;
53022;SDS011;38913;44.338;11.206;2023-03-01T06:36:38;28.58;;;15.35;;
53022;SDS011;38913;44.338;11.206;2023-03-01T06:39:04;28.42;;;15.10;;
53022;SDS011;38913;44.338;11.206;2023-03-01T06:41:30;26.17;;;14.63;;
53022;SDS011;38913;44.338;11.206;2023-03-01T06:43:55;25.55;;;14.90;;
53022;SDS011;38913;44.338;11.206;2023-03-01T06:46:20;25.37;;;14.40;;
53022;SDS011;38913;44.338;11.206;2023-03-01T06:48:46;29.85;;;15.32;;
53022;SDS011;38913;44.338;11.206;2023-03-01T06:51:11;27.98;;;14.55;;
53022;SDS011;38913;44.338;11.206;2023-03-01T06:53:37;28.33;;;14.97;;
53022;SDS011;38913;44.338;11.206;2023-03-01T06:56:02;27.83;;;15.07;;
53022;SDS011;38913;44.338;11.206;2023-03-01T06:58:27;27.20;;;15.25;;
53022;SDS011;38913;44.338;11.206;2023-03-01T07:00:52;28.10;;;15.23;;
53022;SDS011;38913;44.338;11.206;2023-03-01T07:03:18;26.80;;;15.87;;
53022;SDS011;38913;44.338;11.206;2023-03-01T07:05:43;28.63;;;15.37;;
53022;SDS011;38913;44.338;11.206;2023-03-01T07:08:09;32.47;;;16.55;;
53022;SDS011;38913;44.338;11.206;2023-03-01T07:10:34;31.15;;;17.65;;
53022;SDS011;38913;44.338;11.206;2023-03-01T07:13:00;31.92;;;16.83;;
53022;SDS011;38913;44.338;11.206;2023-03-01T07:15:26;31.75;;;17.88;;
53022;SDS011;38913;44.338;11.206;2023-03-01T07:17:51;32.78;;;16.50;;
53022;SDS011;38913;44.338;11.206;2023-03-01T07:20:20;31.80;;;16.50;;
53022;SDS011;38913;44.338;11.206;2023-03-01T07:22:50;31.00;;;17.73;;
53022;SDS011;38913;44.338;11.206;2023-03-01T07:25:15;34.72;;;19.08;;
53022;SDS011;38913;44.338;11.206;2023-03-01T07:27:40;33.67;;;17.90;;
53022;SDS011;38913;44.338;11.206;2023-03-01T07:30:06;32.70;;;18.03;;
53022;SDS011;38913;44.338;11.206;2023-03-01T07:32:31;36.80;;;17.92;;
53022;SDS011;38913;44.338;11.206;2023-03-01T07:34:56;32.17;;;17.33;;
53022;SDS011;38913;44.338;11.206;2023-03-01T07:37:22;33.10;;;18.10;;
53022;SDS011;38913;44.338;11.206;2023-03-01T07:39:47;32.93;;;18.63;;
53022;SDS011;38913;44.338;11.206;2023-03-01T07:42:12;32.65;;;18.70;;
53022;SDS011;38913;44.338;11.206;2023-03-01T07:44:37;30.90;;;16.77;;
53022;SDS011;38913;44.338;11.206;2023-03-01T07:47:03;33.43;;;17.73;;
53022;SDS011;38913;44.338;11.206;2023-03-01T07:49:29;30.42;;;17.05;;
53022;SDS011;38913;44.338;11.206;2023-03-01T07:51:54;31.60;;;16.60;;
53022;SDS011;38913;44.338;11.206;2023-03-01T07:54:19;31.33;;;16.80;;
53022;SDS011;38913;44.338;11.206;2023-03-01T07:56:44;27.17;;;15.67;;
53022;SDS011;38913;44.338;11.206;2023-03-01T07:59:10;33.17;;;15.83;;
53022;SDS011;38913;44.338;11.206;2023-03-01T08:01:35;30.93;;;16.83;;
53022;SDS011;38913;44.338;11.206;2023-03-01T08:04:00;28.83;;;16.17;;
53022;SDS011;38913;44.338;11.206;2023-03-01T08:06:26;34.65;;;17.23;;
53022;SDS011;38913;44.338;11.206;2023-03-01T08:08:52;30.50;;;17.08;;
53022;SDS011;38913;44.338;11.206;2023-03-01T08:11:17;28.52;;;15.07;;
53022;SDS011;38913;44.338;11.206;2023-03-01T08:13:42;26.85;;;14.68;;
53022;SDS011;38913;44.338;11.206;2023-03-01T08:16:12;26.20;;;15.20;;
53022;SDS011;38913;44.338;11.206;2023-03-01T08:18:37;28.77;;;14.90;;
53022;SDS011;38913;44.338;11.206;2023-03-01T08:21:06;22.95;;;13.75;;
53022;SDS011;38913;44.338;11.206;2023-03-01T08:23:32;26.02;;;14.00;;
53022;SDS011;38913;44.338;11.206;2023-03-01T08:26:13;22.90;;;14.15;;
53022;SDS011;38913;44.338;11.206;2023-03-01T08:28:39;26.05;;;14.13;;
53022;SDS011;38913;44.338;11.206;2023-03-01T08:31:15;28.75;;;15.38;;
53022;SDS011;38913;44.338;11.206;2023-03-01T08:33:40;26.73;;;14.63;;
53022;SDS011;38913;44.338;11.206;2023-03-01T08:36:05;25.67;;;14.38;;
53022;SDS011;38913;44.338;11.206;2023-03-01T08:38:31;26.15;;;14.23;;
53022;SDS011;38913;44.338;11.206;2023-03-01T08:40:58;26.42;;;14.23;;
53022;SDS011;38913;44.338;11.206;2023-03-01T08:43:24;20.50;;;12.73;;
53022;SDS011;38913;44.338;11.206;2023-03-01T08:45:49;23.60;;;13.38;;
53022;SDS011;38913;44.338;11.206;2023-03-01T08:48:15;23.35;;;13.25;;
53022;SDS011;38913;44.338;11.206;2023-03-01T08:50:40;24.07;;;13.73;;
53022;SDS011;38913;44.338;11.206;2023-03-01T08:53:06;21.88;;;13.18;;
53022;SDS011;38913;44.338;11.206;2023-03-01T08:55:31;20.75;;;12.15;;
53022;SDS011;38913;44.338;11.206;2023-03-01T08:57:56;24.75;;;14.07;;
53022;SDS011;38913;44.338;11.206;2023-03-01T09:00:23;20.80;;;13.00;;
53022;SDS011;38913;44.338;11.206;2023-03-01T09:02:49;23.10;;;12.88;;
53022;SDS011;38913;44.338;11.206;2023-03-01T09:05:15;21.98;;;12.38;;
53022;SDS011;38913;44.338;11.206;2023-03-01T09:07:40;20.25;;;12.52;;
53022;SDS011;38913;44.338;11.206;2023-03-01T09:10:05;21.08;;;11.82;;
53022;SDS011;38913;44.338;11.206;2023-03-01T09:12:31;24.13;;;14.15;;
53022;SDS011;38913;44.338;11.206;2023-03-01T09:14:56;22.13;;;13.50;;
53022;SDS011;38913;44.338;11.206;2023-03-01T09:17:21;25.48;;;13.75;;
53022;SDS011;38913;44.338;11.206;2023-03-01T09:19:47;26.05;;;15.10;;
53022;SDS011;38913;44.338;11.206;2023-03-01T09:22:13;28.02;;;16.63;;
53022;SDS011;38913;44.338;11.206;2023-03-01T09:24:38;28.65;;;17.27;;
53022;SDS011;38913;44.338;11.206;2023-03-01T09:27:04;26.77;;;16.52;;
53022;SDS011;38913;44.338;11.206;2023-03-01T09:29:33;26.90;;;15.23;;
53022;SDS011;38913;44.338;11.206;2023-03-01T09:31:58;23.25;;;14.05;;
53022;SDS011;38913;44.338;11.206;2023-03-01T09:34:24;25.02;;;14.88;;
53022;SDS011;38913;44.338;11.206;2023-03-01T09:36:50;20.55;;;12.40;;
53022;SDS011;38913;44.338;11.206;2023-03-01T09:39:16;21.70;;;12.32;;
53022;SDS011;38913;44.338;11.206;2023-03-01T09:44:21;18.77;;;10.98;;
53022;SDS011;38913;44.338;11.206;2023-03-01T09:46:49;21.58;;;12.82;;
53022;SDS011;38913;44.338;11.206;2023-03-01T09:49:16;19.75;;;11.88;;
53022;SDS011;38913;44.338;11.206;2023-03-01T09:51:43;18.83;;;11.35;;
53022;SDS011;38913;44.338;11.206;2023-03-01T09:54:11;20.35;;;11.98;;
53022;SDS011;38913;44.338;11.206;2023-03-01T09:56:40;21.37;;;12.60;;
53022;SDS011;38913;44.338;11.206;2023-03-01T09:59:19;20.90;;;11.52;;
53022;SDS011;38913;44.338;11.206;2023-03-01T10:06:47;21.47;;;12.47;;
53022;SDS011;38913;44.338;11.206;2023-03-01T10:09:17;20.98;;;11.95;;
53022;SDS011;38913;44.338;11.206;2023-03-01T10:11:45;22.02;;;12.75;;
53022;SDS011;38913;44.338;11.206;2023-03-01T10:14:33;22.27;;;12.45;;
53022;SDS011;38913;44.338;11.206;2023-03-01T10:17:01;22.30;;;12.40;;
53022;SDS011;38913;44.338;11.206;2023-03-01T10:19:42;19.25;;;11.60;;
53022;SDS011;38913;44.338;11.206;2023-03-01T10:24:48;25.05;;;13.95;;
53022;SDS011;38913;44.338;11.206;2023-03-01T10:29:46;20.98;;;12.40;;
53022;SDS011;38913;44.338;11.206;2023-03-01T10:32:13;29.38;;;17.42;;
53022;SDS011;38913;44.338;11.206;2023-03-01T10:34:39;41.05;;;19.33;;
53022;SDS011;38913;44.338;11.206;2023-03-01T10:37:11;40.77;;;20.60;;
53022;SDS011;38913;44.338;11.206;2023-03-01T10:39:37;29.38;;;15.95;;
53022;SDS011;38913;44.338;11.206;2023-03-01T10:42:20;26.92;;;14.40;;
53022;SDS011;38913;44.338;11.206;2023-03-01T10:44:48;21.80;;;13.05;;
53022;SDS011;38913;44.338;11.206;2023-03-01T10:47:15;21.50;;;13.20;;
53022;SDS011;38913;44.338;11.206;2023-03-01T10:49:51;20.92;;;12.05;;
53022;SDS011;38913;44.338;11.206;2023-03-01T10:52:21;22.42;;;13.88;;
53022;SDS011;38913;44.338;11.206;2023-03-01T10:54:53;23.17;;;12.18;;
53022;SDS011;38913;44.338;11.206;2023-03-01T10:57:29;21.65;;;12.32;;
53022;SDS011;38913;44.338;11.206;2023-03-01T11:00:10;21.60;;;12.70;;
53022;SDS011;38913;44.338;11.206;2023-03-01T11:02:38;20.98;;;12.23;;
53022;SDS011;38913;44.338;11.206;2023-03-01T11:05:16;20.52;;;12.05;;
53022;SDS011;38913;44.338;11.206;2023-03-01T11:07:48;19.33;;;12.05;;
53022;SDS011;38913;44.338;11.206;2023-03-01T11:10:18;23.77;;;13.45;;
53022;SDS011;38913;44.338;11.206;2023-03-01T11:12:43;24.55;;;14.20;;
53022;SDS011;38913;44.338;11.206;2023-03-01T11:15:15;24.50;;;14.33;;
53022;SDS011;38913;44.338;11.206;2023-03-01T11:17:44;23.52;;;15.13;;
53022;SDS011;38913;44.338;11.206;2023-03-01T11:22:37;23.65;;;14.13;;
53022;SDS011;38913;44.338;11.206;2023-03-01T11:25:10;26.15;;;15.05;;
53022;SDS011;38913;44.338;11.206;2023-03-01T11:27:40;26.45;;;15.43;;
53022;SDS011;38913;44.338;11.206;2023-03-01T11:30:18;24.15;;;14.90;;
53022;SDS011;38913;44.338;11.206;2023-03-01T11:35:20;20.83;;;12.45;;
53022;SDS011;38913;44.338;11.206;2023-03-01T11:42:55;20.13;;;12.77;;
53022;SDS011;38913;44.338;11.206;2023-03-01T11:45:23;19.33;;;11.35;;
53022;SDS011;38913;44.338;11.206;2023-03-01T11:50:16;19.30;;;11.23;;
53022;SDS011;38913;44.338;11.206;2023-03-01T11:55:33;18.83;;;11.27;;
53022;SDS011;38913;44.338;11.206;2023-03-01T12:00:35;17.48;;;11.15;;
53022;SDS011;38913;44.338;11.206;2023-03-01T12:16:34;14.57;;;9.18;;
53022;SDS011;38913;44.338;11.206;2023-03-01T12:19:14;16.25;;;11.00;;
53022;SDS011;38913;44.338;11.206;2023-03-01T12:25:10;17.13;;;10.32;;
53022;SDS011;38913;44.338;11.206;2023-03-01T12:27:37;13.93;;;8.82;;
53022;SDS011;38913;44.338;11.206;2023-03-01T12:40:23;17.00;;;10.50;;
53022;SDS011;38913;44.338;11.206;2023-03-01T12:43:03;18.45;;;12.27;;
53022;SDS011;38913;44.338;11.206;2023-03-01T12:50:53;15.60;;;10.55;;
53022;SDS011;38913;44.338;11.206;2023-03-01T12:53:23;17.67;;;11.82;;
53022;SDS011;38913;44.338;11.206;2023-03-01T12:55:49;16.80;;;11.00;;
53022;SDS011;38913;44.338;11.206;2023-03-01T13:03:21;17.48;;;11.23;;
53022;SDS011;38913;44.338;11.206;2023-03-01T13:05:56;20.75;;;12.90;;
53022;SDS011;38913;44.338;11.206;2023-03-01T13:11:25;16.15;;;10.75;;
53022;SDS011;38913;44.338;11.206;2023-03-01T13:13:51;13.48;;;10.15;;
53022;SDS011;38913;44.338;11.206;2023-03-01T13:19:07;15.80;;;9.68;;
53022;SDS011;38913;44.338;11.206;2023-03-01T13:21:35;13.48;;;9.40;;
53022;SDS011;38913;44.338;11.206;2023-03-01T13:24:00;11.05;;;7.95;;
53022;SDS011;38913;44.338;11.206;2023-03-01T13:26:25;11.93;;;7.68;;
53022;SDS011;38913;44.338;11.206;2023-03-01T13:28:52;10.00;;;6.90;;
53022;SDS011;38913;44.338;11.206;2023-03-01T13:36:45;9.25;;;6.97;;
53022;SDS011;38913;44.338;11.206;2023-03-01T13:39:05;10.43;;;6.97;;
53022;SDS011;38913;44.338;11.206;2023-03-01T13:41:51;10.53;;;6.80;;
53022;SDS011;38913;44.338;11.206;2023-03-01T13:46:42;14.73;;;10.30;;
53022;SDS011;38913;44.338;11.206;2023-03-01T13:49:09;10.57;;;7.55;;
53022;SDS011;38913;44.338;11.206;2023-03-01T13:51:36;11.02;;;7.25;;
53022;SDS011;38913;44.338;11.206;2023-03-01T13:54:01;10.07;;;7.30;;
53022;SDS011;38913;44.338;11.206;2023-03-01T13:56:28;12.48;;;8.20;;
53022;SDS011;38913;44.338;11.206;2023-03-01T13:58:59;14.38;;;9.50;;
53022;SDS011;38913;44.338;11.206;2023-03-01T14:01:27;14.98;;;9.50;;
53022;SDS011;38913;44.338;11.206;2023-03-01T14:03:53;14.57;;;10.02;;
53022;SDS011;38913;44.338;11.206;2023-03-01T14:06:25;18.75;;;12.32;;
53022;SDS011;38913;44.338;11.206;2023-03-01T14:08:52;18.83;;;12.20;;
53022;SDS011;38913;44.338;11.206;2023-03-01T14:19:18;14.68;;;8.75;;
53022;SDS011;38913;44.338;11.206;2023-03-01T14:21:45;12.75;;;8.43;;
53022;SDS011;38913;44.338;11.206;2023-03-01T14:24:18;14.98;;;9.77;;
53022;SDS011;38913;44.338;11.206;2023-03-01T14:26:45;16.10;;;11.00;;
53022;SDS011;38913;44.338;11.206;2023-03-01T14:31:55;17.73;;;11.98;;
53022;SDS011;38913;44.338;11.206;2023-03-01T14:34:21;18.58;;;13.05;;
53022;SDS011;38913;44.338;11.206;2023-03-01T14:36:46;15.13;;;10.40;;
53022;SDS011;38913;44.338;11.206;2023-03-01T14:39:19;15.25;;;9.98;;
53022;SDS011;38913;44.338;11.206;2023-03-01T14:41:46;12.02;;;8.45;;
53022;SDS011;38913;44.338;11.206;2023-03-01T14:44:14;16.13;;;10.55;;
53022;SDS011;38913;44.338;11.206;2023-03-01T14:46:41;16.77;;;11.20;;
53022;SDS011;38913;44.338;11.206;2023-03-01T14:49:15;14.02;;;9.82;;
53022;SDS011;38913;44.338;11.206;2023-03-01T14:51:42;15.65;;;9.90;;
53022;SDS011;38913;44.338;11.206;2023-03-01T14:56:46;20.23;;;13.77;;
53022;SDS011;38913;44.338;11.206;2023-03-01T14:59:12;20.80;;;14.38;;
53022;SDS011;38913;44.338;11.206;2023-03-01T15:01:39;21.13;;;13.85;;
53022;SDS011;38913;44.338;11.206;2023-03-01T15:04:05;20.13;;;13.23;;
53022;SDS011;38913;44.338;11.206;2023-03-01T15:06:30;19.20;;;13.68;;
53022;SDS011;38913;44.338;11.206;2023-03-01T15:08:55;18.35;;;11.40;;
53022;SDS011;38913;44.338;11.206;2023-03-01T15:13:49;15.98;;;10.38;;
53022;SDS011;38913;44.338;11.206;2023-03-01T15:16:15;13.45;;;9.98;;
53022;SDS011;38913;44.338;11.206;2023-03-01T15:18:49;13.95;;;9.52;;
53022;SDS011;38913;44.338;11.206;2023-03-01T15:21:16;14.10;;;8.90;;
53022;SDS011;38913;44.338;11.206;2023-03-01T15:23:41;14.30;;;9.32;;
53022;SDS011;38913;44.338;11.206;2023-03-01T15:26:29;14.27;;;9.50;;
53022;SDS011;38913;44.338;11.206;2023-03-01T15:28:55;13.63;;;8.70;;
53022;SDS011;38913;44.338;11.206;2023-03-01T15:31:33;15.88;;;9.93;;
53022;SDS011;38913;44.338;11.206;2023-03-01T15:36:44;13.48;;;9.13;;
53022;SDS011;38913;44.338;11.206;2023-03-01T15:39:52;12.75;;;8.52;;
53022;SDS011;38913;44.338;11.206;2023-03-01T15:44:35;13.80;;;9.15;;
53022;SDS011;38913;44.338;11.206;2023-03-01T15:47:01;14.85;;;9.13;;
53022;SDS011;38913;44.338;11.206;2023-03-01T15:49:37;14.15;;;9.88;;
53022;SDS011;38913;44.338;11.206;2023-03-01T15:52:04;14.27;;;9.73;;
53022;SDS011;38913;44.338;11.206;2023-03-01T15:54:30;13.50;;;9.23;;
53022;SDS011;38913;44.338;11.206;2023-03-01T15:56:55;15.73;;;11.02;;
53022;SDS011;38913;44.338;11.206;2023-03-01T15:59:21;16.90;;;10.83;;
53022;SDS011;38913;44.338;11.206;2023-03-01T16:01:47;17.98;;;12.32;;
53022;SDS011;38913;44.338;11.206;2023-03-01T16:04:14;16.88;;;10.45;;
53022;SDS011;38913;44.338;11.206;2023-03-01T16:06:45;14.27;;;9.30;;
53022;SDS011;38913;44.338;11.206;2023-03-01T16:09:10;17.13;;;11.90;;
53022;SDS011;38913;44.338;11.206;2023-03-01T16:11:37;21.33;;;13.15;;